Island Explorer — WDG7285 — position and weather

sailwx.info

Track history (hours):
 
Tides and Currents Weather Stations Pressure Air Temp Water Temp Dewpoint Dewpoint Depression Visibility Wind Speed Wind Dir Waves Ship Positions

Island Explorer

Owner: Island Packers, Inc., Ventura, CA. More information available from US FCC via Universal Licensing System and Coast Guard Vessel Documentation Center.

Last reported at 2018-Jan-18 13:50 UTC. Time now 2018-Jan-18 14:07 UTC.
Position N 34°15' W 119°16'.

Length 22 m.

Type: Passenger vessel. MMSI: 367565750.

Date/timePositionNaut miles runAvg speedWind from/ knotsBaromVisibWave heightAir tempDewpointWater temp
2018-Jan-18 13:50N 34°15' W 119°16'0 0.0
2018-Jan-18 13:29N 34°15' W 119°16'0 0.0
2018-Jan-18 12:58N 34°15' W 119°16'0 0.0
2018-Jan-18 12:30N 34°15' W 119°16'0 0.0
2018-Jan-18 11:59N 34°15' W 119°16'0 0.0
2018-Jan-18 11:30N 34°15' W 119°16'0 0.0
2018-Jan-18 10:53N 34°15' W 119°16'0 0.0
2018-Jan-18 10:30N 34°15' W 119°16'0 0.0
2018-Jan-18 10:00N 34°15' W 119°16'0 0.0
2018-Jan-18 09:29N 34°15' W 119°16'0 0.0
2018-Jan-18 08:56N 34°15' W 119°16'0 0.0
2018-Jan-18 08:28N 34°15' W 119°16'0 0.0
2018-Jan-18 08:00N 34°15' W 119°16'0 0.0
2018-Jan-18 07:30N 34°15' W 119°16'0 0.0
2018-Jan-18 06:59N 34°15' W 119°16'0 0.0
2018-Jan-18 06:25N 34°15' W 119°16'0 0.0
2018-Jan-18 05:59N 34°15' W 119°16'0 0.0
2018-Jan-18 05:27N 34°15' W 119°16'0 0.0
2018-Jan-18 04:58N 34°15' W 119°16'0 0.0
2018-Jan-18 04:30N 34°15' W 119°16'0 0.0
2018-Jan-18 03:58N 34°15' W 119°16'0 0.0
2018-Jan-18 03:30N 34°15' W 119°16'0 0.0
2018-Jan-18 02:55N 34°15' W 119°16'0 0.0
2018-Jan-18 02:29N 34°15' W 119°16'0 0.0
2018-Jan-18 02:00N 34°15' W 119°16'612.8
2018-Jan-18 01:30N 34°17' W 119°23'1019.0
2018-Jan-18 01:00N 34°21' W 119°33'7 7.2
2018-Jan-17 23:58N 34°24' W 119°42'0 0.0
2018-Jan-17 23:54N 34°24' W 119°42'  
2018-Jan-12 14:58N 34°15' W 119°16'0 0.0
2018-Jan-12 14:28N 34°15' W 119°16'0 0.0
2018-Jan-12 13:58N 34°15' W 119°16'0 0.0
2018-Jan-12 13:30N 34°15' W 119°16'0 0.0
2018-Jan-12 12:56N 34°15' W 119°16'0 0.0
2018-Jan-12 12:28N 34°15' W 119°16'0 0.0
2018-Jan-12 11:57N 34°15' W 119°16'0 0.0
2018-Jan-12 11:29N 34°15' W 119°16'0 0.0
2018-Jan-12 10:40N 34°15' W 119°16'0 0.0
2018-Jan-12 10:28N 34°15' W 119°16'0 0.0
2018-Jan-12 10:00N 34°15' W 119°16'0 0.0
2018-Jan-12 09:30N 34°15' W 119°16'0 0.0
2018-Jan-12 08:54N 34°15' W 119°16'0 0.0
2018-Jan-12 08:29N 34°15' W 119°16'0 0.0
2018-Jan-12 07:49N 34°15' W 119°16'0 0.0
2018-Jan-12 07:28N 34°15' W 119°16'0 0.0
2018-Jan-12 07:00N 34°15' W 119°16'0 0.0
2018-Jan-12 06:28N 34°15' W 119°16'0 0.0
2018-Jan-12 05:56N 34°15' W 119°16'0 0.0
2018-Jan-12 05:23N 34°15' W 119°16'0 0.0
2018-Jan-12 05:00N 34°15' W 119°16'0 0.0
2018-Jan-12 04:28N 34°15' W 119°16'0 0.0
2018-Jan-12 04:00N 34°15' W 119°16'0 0.0
2018-Jan-12 03:30N 34°15' W 119°16'0 0.0
2018-Jan-12 03:00N 34°15' W 119°16'0 0.0
2018-Jan-12 02:27N 34°15' W 119°16'0 0.0
2018-Jan-12 02:00N 34°15' W 119°16'815.5
2018-Jan-12 01:30N 34°18' W 119°24'1019.8
2018-Jan-12 01:00N 34°22' W 119°35'611.1
2018-Jan-12 00:29N 34°24' W 119°42'0 0.0
2018-Jan-12 00:00N 34°24' W 119°42'2 4.0
2018-Jan-11 23:30N 34°24' W 119°39'816.4
2018-Jan-11 23:00N 34°20' W 119°30'918.4
2018-Jan-11 22:30N 34°16' W 119°20'4 7.3
2018-Jan-11 21:58N 34°15' W 119°16'0 0.0
2018-Jan-11 21:30N 34°15' W 119°16'712.9
2018-Jan-11 20:59N 34°18' W 119°23'919.1
2018-Jan-11 20:30N 34°21' W 119°33'714.9
2018-Jan-11 20:00N 34°24' W 119°42'0 0.0
2018-Jan-11 19:30N 34°24' W 119°42'0 0.0
2018-Jan-11 18:58N 34°24' W 119°42'0 0.0
2018-Jan-11 18:30N 34°24' W 119°42'0 0.0
2018-Jan-11 17:55N 34°24' W 119°42'0 0.2
2018-Jan-11 17:29N 34°24' W 119°41'817.6
2018-Jan-11 17:00N 34°21' W 119°32'1020.3
2018-Jan-11 16:30N 34°16' W 119°21'5 8.8
2018-Jan-11 15:58N 34°15' W 119°16'0 0.0
2018-Jan-11 15:30N 34°15' W 119°16'0 0.0
2018-Jan-11 14:58N 34°15' W 119°16'0 0.0
2018-Jan-11 14:28N 34°15' W 119°16'0 0.0
2018-Jan-11 13:58N 34°15' W 119°16'0 0.0
2018-Jan-11 13:30N 34°15' W 119°16'0 0.0
2018-Jan-11 12:58N 34°15' W 119°16'0 0.0
2018-Jan-11 12:30N 34°15' W 119°16'0 0.0
2018-Jan-11 11:38N 34°15' W 119°16'0 0.0
2018-Jan-11 11:16N 34°15' W 119°16'0 0.0
2018-Jan-11 10:55N 34°15' W 119°16'0 0.0
2018-Jan-11 10:30N 34°15' W 119°16'0 0.0
2018-Jan-11 09:58N 34°15' W 119°16'0 0.0
2018-Jan-11 09:26N 34°15' W 119°16'0 0.0
2018-Jan-11 08:58N 34°15' W 119°16'0 0.0
2018-Jan-11 08:29N 34°15' W 119°16'0 0.0
2018-Jan-11 07:54N 34°15' W 119°16'0 0.0
2018-Jan-11 07:30N 34°15' W 119°16'0 0.0
2018-Jan-11 07:00N 34°15' W 119°16'0 0.0
2018-Jan-11 06:29N 34°15' W 119°16'0 0.0
2018-Jan-11 05:48N 34°15' W 119°16'0 0.0
2018-Jan-11 05:30N 34°15' W 119°16'0 0.0
2018-Jan-11 04:48N 34°15' W 119°16'0 0.0
2018-Jan-11 04:30N 34°15' W 119°16'0 0.0
2018-Jan-11 03:53N 34°15' W 119°16'0 0.0
2018-Jan-11 03:25N 34°15' W 119°16'0 0.0
2018-Jan-11 02:56N 34°15' W 119°16'0 0.0
2018-Jan-11 02:26N 34°15' W 119°16'0 0.0
2018-Jan-11 02:00N 34°15' W 119°16'0 0.0
2018-Jan-11 01:29N 34°15' W 119°16'1 2.6
2018-Jan-11 01:00N 34°15' W 119°17'918.7
2018-Jan-11 00:30N 34°19' W 119°28'1019.5
2018-Jan-10 23:59N 34°23' W 119°39'3 5.9
2018-Jan-10 23:30N 34°24' W 119°42'0 0.0
2018-Jan-10 22:59N 34°24' W 119°42'511.4
2018-Jan-10 22:30N 34°22' W 119°36'917.8
2018-Jan-10 21:59N 34°18' W 119°26'816.1
2018-Jan-10 21:30N 34°14' W 119°18'2 3.3
2018-Jan-10 21:00N 34°15' W 119°16'0 0.0
2018-Jan-10 20:27N 34°15' W 119°16'0 0.0
2018-Jan-10 19:58N 34°15' W 119°16'0 0.4
2018-Jan-10 19:29N 34°14' W 119°16'1 1.2
2018-Jan-10 19:00N 34°15' W 119°16'918.0
2018-Jan-10 18:30N 34°18' W 119°27'919.2
2018-Jan-10 18:00N 34°23' W 119°37'4 8.5
2018-Jan-10 17:30N 34°24' W 119°41'0 0.0
2018-Jan-10 17:00N 34°24' W 119°41'2 3.9
2018-Jan-10 16:30N 34°23' W 119°40'1119.4
2018-Jan-10 15:57N 34°18' W 119°28'817.8
2018-Jan-10 15:30N 34°14' W 119°20'3 6.3
2018-Jan-10 15:00N 34°15' W 119°16'0 0.0
2018-Jan-10 14:28N 34°15' W 119°16'0 0.0
2018-Jan-10 13:51N 34°15' W 119°16'0 0.0
2018-Jan-10 13:24N 34°15' W 119°16'0 0.0
2018-Jan-10 12:57N 34°15' W 119°16'0 0.0
2018-Jan-10 12:30N 34°15' W 119°16'0 0.0
2018-Jan-10 11:53N 34°15' W 119°16'0 0.0
2018-Jan-10 11:30N 34°15' W 119°16'0 0.0
2018-Jan-10 11:00N 34°15' W 119°16'0 0.0
2018-Jan-10 10:30N 34°15' W 119°16'0 0.0
2018-Jan-10 09:57N 34°15' W 119°16'0 0.0
2018-Jan-10 09:31N 34°15' W 119°16'0 0.0
2018-Jan-10 09:00N 34°15' W 119°16'0 0.0
2018-Jan-10 08:29N 34°15' W 119°16'0 0.0
2018-Jan-10 08:01N 34°15' W 119°16'0 0.0
2018-Jan-10 07:30N 34°15' W 119°16'0 0.0
2018-Jan-10 06:57N 34°15' W 119°16'0 0.0
2018-Jan-10 06:26N 34°15' W 119°16'0 0.0
2018-Jan-10 05:58N 34°15' W 119°16'0 0.0
2018-Jan-10 05:30N 34°15' W 119°16'0 0.0
2018-Jan-10 04:58N 34°15' W 119°16'0 0.0
2018-Jan-10 04:30N 34°15' W 119°16'0 0.0
2018-Jan-10 04:00N 34°15' W 119°16'0 0.0
2018-Jan-10 03:29N 34°15' W 119°16'0 0.0
2018-Jan-10 03:00N 34°15' W 119°16'0 0.0
2018-Jan-10 02:30N 34°15' W 119°16'0 0.0
2018-Jan-10 02:00N 34°15' W 119°16'0 0.0
2018-Jan-10 01:31N 34°15' W 119°16'0 0.0
2018-Jan-10 00:59N 34°15' W 119°16'0 0.0
2018-Jan-10 00:30N 34°15' W 119°16'0 0.0
2018-Jan-09 23:58N 34°15' W 119°16'0 0.0
2018-Jan-09 23:31N 34°15' W 119°16'0 0.0
2018-Jan-09 22:56N 34°15' W 119°16'0 0.0
2018-Jan-09 22:29N 34°15' W 119°16'0 0.0
2018-Jan-09 21:59N 34°15' W 119°16'0 0.0
2018-Jan-09 21:29N 34°15' W 119°16'0 0.0
2018-Jan-09 20:52N 34°15' W 119°16'0 0.0
2018-Jan-09 20:28N 34°15' W 119°16'0 0.0
2018-Jan-09 19:59N 34°15' W 119°16'0 0.0
2018-Jan-09 19:07N 34°15' W 119°16'0 0.0
2018-Jan-09 18:59N 34°15' W 119°16'0 0.0
2018-Jan-09 18:21N 34°15' W 119°16'0 0.0
2018-Jan-09 17:58N 34°15' W 119°16'0 0.0
2018-Jan-09 17:27N 34°15' W 119°16'0 0.0
2018-Jan-09 16:58N 34°15' W 119°16'0 0.0
2018-Jan-09 16:23N 34°15' W 119°16'0 0.0
2018-Jan-09 15:58N 34°15' W 119°16'0 0.0
2018-Jan-09 15:30N 34°15' W 119°16'0 0.0
2018-Jan-09 15:00N 34°15' W 119°16'0 0.0
2018-Jan-09 14:25N 34°15' W 119°16'0 0.0
2018-Jan-09 13:58N 34°15' W 119°16'0 0.0
2018-Jan-09 13:29N 34°15' W 119°16'0 0.0
2018-Jan-09 12:59N 34°15' W 119°16'0 0.0
2018-Jan-09 12:31N 34°15' W 119°16'0 0.0
2018-Jan-09 11:58N 34°15' W 119°16'0 0.0
2018-Jan-09 11:28N 34°15' W 119°16'0 0.0
2018-Jan-09 11:00N 34°15' W 119°16'0 0.0
2018-Jan-09 10:31N 34°15' W 119°16'0 0.0
2018-Jan-09 10:00N 34°15' W 119°16'0 0.0
2018-Jan-09 09:29N 34°15' W 119°16'0 0.0
2018-Jan-09 08:59N 34°15' W 119°16'0 0.0
2018-Jan-09 08:28N 34°15' W 119°16'0 0.0
2018-Jan-09 08:00N 34°15' W 119°16'0 0.0
2018-Jan-09 07:30N 34°15' W 119°16'0 0.0
2018-Jan-09 06:59N 34°15' W 119°16'0 0.0
2018-Jan-09 06:31N 34°15' W 119°16'0 0.0
2018-Jan-09 05:59N 34°15' W 119°16'0 0.0
2018-Jan-09 05:29N 34°15' W 119°16'0 0.0
2018-Jan-09 05:00N 34°15' W 119°16'0 0.0
2018-Jan-09 04:30N 34°15' W 119°16'0 0.0
2018-Jan-09 04:00N 34°15' W 119°16'0 0.0
2018-Jan-09 03:29N 34°15' W 119°16'0 0.0
2018-Jan-09 03:00N 34°15' W 119°16'0 0.0
2018-Jan-09 02:30N 34°15' W 119°16'0 0.0
2018-Jan-09 02:00N 34°15' W 119°16'0 0.0
2018-Jan-09 01:29N 34°15' W 119°16'0 0.0
2018-Jan-09 01:01N 34°15' W 119°16'0 0.0
2018-Jan-09 00:30N 34°15' W 119°16'0 0.0
2018-Jan-08 23:54N 34°15' W 119°16'0 0.0
2018-Jan-08 23:29N 34°15' W 119°16'0 0.0
2018-Jan-08 22:55N 34°15' W 119°16'0 0.0
2018-Jan-08 22:29N 34°15' W 119°16'0 0.0
2018-Jan-08 22:00N 34°15' W 119°16'0 0.0
2018-Jan-08 21:30N 34°15' W 119°16'0 0.0
2018-Jan-08 21:00N 34°15' W 119°16'0 0.0
2018-Jan-08 20:31N 34°15' W 119°16'0 0.0
2018-Jan-08 20:00N 34°15' W 119°16'0 0.0
2018-Jan-08 19:30N 34°15' W 119°16'0 0.0
2018-Jan-08 18:54N 34°15' W 119°16'0 0.0
2018-Jan-08 18:30N 34°15' W 119°16'0 0.0
2018-Jan-08 17:57N 34°15' W 119°16'0 0.0
2018-Jan-08 17:29N 34°15' W 119°16'0 0.0
2018-Jan-08 16:59N 34°15' W 119°16'0 0.0
2018-Jan-08 16:28N 34°15' W 119°16'0 0.0
2018-Jan-08 16:01N 34°15' W 119°16'0 0.0
2018-Jan-08 15:30N 34°15' W 119°16'0 0.0
2018-Jan-08 15:00N 34°15' W 119°16'0 0.0
2018-Jan-08 14:26N 34°15' W 119°16'0 0.0
2018-Jan-08 13:59N 34°15' W 119°16'  
Track history (hours):
 
Tides and Currents Weather Stations Pressure Air Temp Water Temp Dewpoint Dewpoint Depression Visibility Wind Speed Wind Dir Waves Ship Positions

Island Explorer

Owner: Island Packers, Inc., Ventura, CA. More information available from US FCC via Universal Licensing System and Coast Guard Vessel Documentation Center.

Last reported at 2018-Jan-18 13:50 UTC. Time now 2018-Jan-18 14:07 UTC.
Position N 34°15' W 119°16'.

Length 22 m.

Type: Passenger vessel. MMSI: 367565750.

Date/timePositionNaut miles runAvg speedWind from/ knotsBaromVisibWave heightAir tempDewpointWater temp
2018-Jan-18 13:50N 34°15' W 119°16'0 0.0
2018-Jan-18 13:29N 34°15' W 119°16'0 0.0
2018-Jan-18 12:58N 34°15' W 119°16'0 0.0
2018-Jan-18 12:30N 34°15' W 119°16'0 0.0
2018-Jan-18 11:59N 34°15' W 119°16'0 0.0
2018-Jan-18 11:30N 34°15' W 119°16'0 0.0
2018-Jan-18 10:53N 34°15' W 119°16'0 0.0
2018-Jan-18 10:30N 34°15' W 119°16'0 0.0
2018-Jan-18 10:00N 34°15' W 119°16'0 0.0
2018-Jan-18 09:29N 34°15' W 119°16'0 0.0
2018-Jan-18 08:56N 34°15' W 119°16'0 0.0
2018-Jan-18 08:28N 34°15' W 119°16'0 0.0
2018-Jan-18 08:00N 34°15' W 119°16'0 0.0
2018-Jan-18 07:30N 34°15' W 119°16'0 0.0
2018-Jan-18 06:59N 34°15' W 119°16'0 0.0
2018-Jan-18 06:25N 34°15' W 119°16'0 0.0
2018-Jan-18 05:59N 34°15' W 119°16'0 0.0
2018-Jan-18 05:27N 34°15' W 119°16'0 0.0
2018-Jan-18 04:58N 34°15' W 119°16'0 0.0
2018-Jan-18 04:30N 34°15' W 119°16'0 0.0
2018-Jan-18 03:58N 34°15' W 119°16'0 0.0
2018-Jan-18 03:30N 34°15' W 119°16'0 0.0
2018-Jan-18 02:55N 34°15' W 119°16'0 0.0
2018-Jan-18 02:29N 34°15' W 119°16'0 0.0
2018-Jan-18 02:00N 34°15' W 119°16'612.8
2018-Jan-18 01:30N 34°17' W 119°23'1019.0
2018-Jan-18 01:00N 34°21' W 119°33'7 7.2
2018-Jan-17 23:58N 34°24' W 119°42'0 0.0
2018-Jan-17 23:54N 34°24' W 119°42'  
2018-Jan-12 14:58N 34°15' W 119°16'0 0.0
2018-Jan-12 14:28N 34°15' W 119°16'0 0.0
2018-Jan-12 13:58N 34°15' W 119°16'0 0.0
2018-Jan-12 13:30N 34°15' W 119°16'0 0.0
2018-Jan-12 12:56N 34°15' W 119°16'0 0.0
2018-Jan-12 12:28N 34°15' W 119°16'0 0.0
2018-Jan-12 11:57N 34°15' W 119°16'0 0.0
2018-Jan-12 11:29N 34°15' W 119°16'0 0.0
2018-Jan-12 10:40N 34°15' W 119°16'0 0.0
2018-Jan-12 10:28N 34°15' W 119°16'0 0.0
2018-Jan-12 10:00N 34°15' W 119°16'0 0.0
2018-Jan-12 09:30N 34°15' W 119°16'0 0.0
2018-Jan-12 08:54N 34°15' W 119°16'0 0.0
2018-Jan-12 08:29N 34°15' W 119°16'0 0.0
2018-Jan-12 07:49N 34°15' W 119°16'0 0.0
2018-Jan-12 07:28N 34°15' W 119°16'0 0.0
2018-Jan-12 07:00N 34°15' W 119°16'0 0.0
2018-Jan-12 06:28N 34°15' W 119°16'0 0.0
2018-Jan-12 05:56N 34°15' W 119°16'0 0.0
2018-Jan-12 05:23N 34°15' W 119°16'0 0.0
2018-Jan-12 05:00N 34°15' W 119°16'0 0.0
2018-Jan-12 04:28N 34°15' W 119°16'0 0.0
2018-Jan-12 04:00N 34°15' W 119°16'0 0.0
2018-Jan-12 03:30N 34°15' W 119°16'0 0.0
2018-Jan-12 03:00N 34°15' W 119°16'0 0.0
2018-Jan-12 02:27N 34°15' W 119°16'0 0.0
2018-Jan-12 02:00N 34°15' W 119°16'815.5
2018-Jan-12 01:30N 34°18' W 119°24'1019.8
2018-Jan-12 01:00N 34°22' W 119°35'611.1
2018-Jan-12 00:29N 34°24' W 119°42'0 0.0
2018-Jan-12 00:00N 34°24' W 119°42'2 4.0
2018-Jan-11 23:30N 34°24' W 119°39'816.4
2018-Jan-11 23:00N 34°20' W 119°30'918.4
2018-Jan-11 22:30N 34°16' W 119°20'4 7.3
2018-Jan-11 21:58N 34°15' W 119°16'0 0.0
2018-Jan-11 21:30N 34°15' W 119°16'712.9
2018-Jan-11 20:59N 34°18' W 119°23'919.1
2018-Jan-11 20:30N 34°21' W 119°33'714.9
2018-Jan-11 20:00N 34°24' W 119°42'0 0.0
2018-Jan-11 19:30N 34°24' W 119°42'0 0.0
2018-Jan-11 18:58N 34°24' W 119°42'0 0.0
2018-Jan-11 18:30N 34°24' W 119°42'0 0.0
2018-Jan-11 17:55N 34°24' W 119°42'0 0.2
2018-Jan-11 17:29N 34°24' W 119°41'817.6
2018-Jan-11 17:00N 34°21' W 119°32'1020.3
2018-Jan-11 16:30N 34°16' W 119°21'5 8.8
2018-Jan-11 15:58N 34°15' W 119°16'0 0.0
2018-Jan-11 15:30N 34°15' W 119°16'0 0.0
2018-Jan-11 14:58N 34°15' W 119°16'0 0.0
2018-Jan-11 14:28N 34°15' W 119°16'0 0.0
2018-Jan-11 13:58N 34°15' W 119°16'0 0.0
2018-Jan-11 13:30N 34°15' W 119°16'0 0.0
2018-Jan-11 12:58N 34°15' W 119°16'0 0.0
2018-Jan-11 12:30N 34°15' W 119°16'0 0.0
2018-Jan-11 11:38N 34°15' W 119°16'0 0.0
2018-Jan-11 11:16N 34°15' W 119°16'0 0.0
2018-Jan-11 10:55N 34°15' W 119°16'0 0.0
2018-Jan-11 10:30N 34°15' W 119°16'0 0.0
2018-Jan-11 09:58N 34°15' W 119°16'0 0.0
2018-Jan-11 09:26N 34°15' W 119°16'0 0.0
2018-Jan-11 08:58N 34°15' W 119°16'0 0.0
2018-Jan-11 08:29N 34°15' W 119°16'0 0.0
2018-Jan-11 07:54N 34°15' W 119°16'0 0.0
2018-Jan-11 07:30N 34°15' W 119°16'0 0.0
2018-Jan-11 07:00N 34°15' W 119°16'0 0.0
2018-Jan-11 06:29N 34°15' W 119°16'0 0.0
2018-Jan-11 05:48N 34°15' W 119°16'0 0.0
2018-Jan-11 05:30N 34°15' W 119°16'0 0.0
2018-Jan-11 04:48N 34°15' W 119°16'0 0.0
2018-Jan-11 04:30N 34°15' W 119°16'0 0.0
2018-Jan-11 03:53N 34°15' W 119°16'0 0.0
2018-Jan-11 03:25N 34°15' W 119°16'0 0.0
2018-Jan-11 02:56N 34°15' W 119°16'0 0.0
2018-Jan-11 02:26N 34°15' W 119°16'0 0.0
2018-Jan-11 02:00N 34°15' W 119°16'0 0.0
2018-Jan-11 01:29N 34°15' W 119°16'1 2.6
2018-Jan-11 01:00N 34°15' W 119°17'918.7
2018-Jan-11 00:30N 34°19' W 119°28'1019.5
2018-Jan-10 23:59N 34°23' W 119°39'3 5.9
2018-Jan-10 23:30N 34°24' W 119°42'0 0.0
2018-Jan-10 22:59N 34°24' W 119°42'511.4
2018-Jan-10 22:30N 34°22' W 119°36'917.8
2018-Jan-10 21:59N 34°18' W 119°26'816.1
2018-Jan-10 21:30N 34°14' W 119°18'2 3.3
2018-Jan-10 21:00N 34°15' W 119°16'0 0.0
2018-Jan-10 20:27N 34°15' W 119°16'0 0.0
2018-Jan-10 19:58N 34°15' W 119°16'0 0.4
2018-Jan-10 19:29N 34°14' W 119°16'1 1.2
2018-Jan-10 19:00N 34°15' W 119°16'918.0
2018-Jan-10 18:30N 34°18' W 119°27'919.2
2018-Jan-10 18:00N 34°23' W 119°37'4 8.5
2018-Jan-10 17:30N 34°24' W 119°41'0 0.0
2018-Jan-10 17:00N 34°24' W 119°41'2 3.9
2018-Jan-10 16:30N 34°23' W 119°40'1119.4
2018-Jan-10 15:57N 34°18' W 119°28'817.8
2018-Jan-10 15:30N 34°14' W 119°20'3 6.3
2018-Jan-10 15:00N 34°15' W 119°16'0 0.0
2018-Jan-10 14:28N 34°15' W 119°16'0 0.0
2018-Jan-10 13:51N 34°15' W 119°16'0 0.0
2018-Jan-10 13:24N 34°15' W 119°16'0 0.0
2018-Jan-10 12:57N 34°15' W 119°16'0 0.0
2018-Jan-10 12:30N 34°15' W 119°16'0 0.0
2018-Jan-10 11:53N 34°15' W 119°16'0 0.0
2018-Jan-10 11:30N 34°15' W 119°16'0 0.0
2018-Jan-10 11:00N 34°15' W 119°16'0 0.0
2018-Jan-10 10:30N 34°15' W 119°16'0 0.0
2018-Jan-10 09:57N 34°15' W 119°16'0 0.0
2018-Jan-10 09:31N 34°15' W 119°16'0 0.0
2018-Jan-10 09:00N 34°15' W 119°16'0 0.0
2018-Jan-10 08:29N 34°15' W 119°16'0 0.0
2018-Jan-10 08:01N 34°15' W 119°16'0 0.0
2018-Jan-10 07:30N 34°15' W 119°16'0 0.0
2018-Jan-10 06:57N 34°15' W 119°16'0 0.0
2018-Jan-10 06:26N 34°15' W 119°16'0 0.0
2018-Jan-10 05:58N 34°15' W 119°16'0 0.0
2018-Jan-10 05:30N 34°15' W 119°16'0 0.0
2018-Jan-10 04:58N 34°15' W 119°16'0 0.0
2018-Jan-10 04:30N 34°15' W 119°16'0 0.0
2018-Jan-10 04:00N 34°15' W 119°16'0 0.0
2018-Jan-10 03:29N 34°15' W 119°16'0 0.0
2018-Jan-10 03:00N 34°15' W 119°16'0 0.0
2018-Jan-10 02:30N 34°15' W 119°16'0 0.0
2018-Jan-10 02:00N 34°15' W 119°16'0 0.0
2018-Jan-10 01:31N 34°15' W 119°16'0 0.0
2018-Jan-10 00:59N 34°15' W 119°16'0 0.0
2018-Jan-10 00:30N 34°15' W 119°16'0 0.0
2018-Jan-09 23:58N 34°15' W 119°16'0 0.0
2018-Jan-09 23:31N 34°15' W 119°16'0 0.0
2018-Jan-09 22:56N 34°15' W 119°16'0 0.0
2018-Jan-09 22:29N 34°15' W 119°16'0 0.0
2018-Jan-09 21:59N 34°15' W 119°16'0 0.0
2018-Jan-09 21:29N 34°15' W 119°16'0 0.0
2018-Jan-09 20:52N 34°15' W 119°16'0 0.0
2018-Jan-09 20:28N 34°15' W 119°16'0 0.0
2018-Jan-09 19:59N 34°15' W 119°16'0 0.0
2018-Jan-09 19:07N 34°15' W 119°16'0 0.0
2018-Jan-09 18:59N 34°15' W 119°16'0 0.0
2018-Jan-09 18:21N 34°15' W 119°16'0 0.0
2018-Jan-09 17:58N 34°15' W 119°16'0 0.0
2018-Jan-09 17:27N 34°15' W 119°16'0 0.0
2018-Jan-09 16:58N 34°15' W 119°16'0 0.0
2018-Jan-09 16:23N 34°15' W 119°16'0 0.0
2018-Jan-09 15:58N 34°15' W 119°16'0 0.0
2018-Jan-09 15:30N 34°15' W 119°16'0 0.0
2018-Jan-09 15:00N 34°15' W 119°16'0 0.0
2018-Jan-09 14:25N 34°15' W 119°16'0 0.0
2018-Jan-09 13:58N 34°15' W 119°16'0 0.0
2018-Jan-09 13:29N 34°15' W 119°16'0 0.0
2018-Jan-09 12:59N 34°15' W 119°16'0 0.0
2018-Jan-09 12:31N 34°15' W 119°16'0 0.0
2018-Jan-09 11:58N 34°15' W 119°16'0 0.0
2018-Jan-09 11:28N 34°15' W 119°16'0 0.0
2018-Jan-09 11:00N 34°15' W 119°16'0 0.0
2018-Jan-09 10:31N 34°15' W 119°16'0 0.0
2018-Jan-09 10:00N 34°15' W 119°16'0 0.0
2018-Jan-09 09:29N 34°15' W 119°16'0 0.0
2018-Jan-09 08:59N 34°15' W 119°16'0 0.0
2018-Jan-09 08:28N 34°15' W 119°16'0 0.0
2018-Jan-09 08:00N 34°15' W 119°16'0 0.0
2018-Jan-09 07:30N 34°15' W 119°16'0 0.0
2018-Jan-09 06:59N 34°15' W 119°16'0 0.0
2018-Jan-09 06:31N 34°15' W 119°16'0 0.0
2018-Jan-09 05:59N 34°15' W 119°16'0 0.0
2018-Jan-09 05:29N 34°15' W 119°16'0 0.0
2018-Jan-09 05:00N 34°15' W 119°16'0 0.0
2018-Jan-09 04:30N 34°15' W 119°16'0 0.0
2018-Jan-09 04:00N 34°15' W 119°16'0 0.0
2018-Jan-09 03:29N 34°15' W 119°16'0 0.0
2018-Jan-09 03:00N 34°15' W 119°16'0 0.0
2018-Jan-09 02:30N 34°15' W 119°16'0 0.0
2018-Jan-09 02:00N 34°15' W 119°16'0 0.0
2018-Jan-09 01:29N 34°15' W 119°16'0 0.0
2018-Jan-09 01:01N 34°15' W 119°16'0 0.0
2018-Jan-09 00:30N 34°15' W 119°16'0 0.0
2018-Jan-08 23:54N 34°15' W 119°16'0 0.0
2018-Jan-08 23:29N 34°15' W 119°16'0 0.0
2018-Jan-08 22:55N 34°15' W 119°16'0 0.0
2018-Jan-08 22:29N 34°15' W 119°16'0 0.0
2018-Jan-08 22:00N 34°15' W 119°16'0 0.0
2018-Jan-08 21:30N 34°15' W 119°16'0 0.0
2018-Jan-08 21:00N 34°15' W 119°16'0 0.0
2018-Jan-08 20:31N 34°15' W 119°16'0 0.0
2018-Jan-08 20:00N 34°15' W 119°16'0 0.0
2018-Jan-08 19:30N 34°15' W 119°16'0 0.0
2018-Jan-08 18:54N 34°15' W 119°16'0 0.0
2018-Jan-08 18:30N 34°15' W 119°16'0 0.0
2018-Jan-08 17:57N 34°15' W 119°16'0 0.0
2018-Jan-08 17:29N 34°15' W 119°16'0 0.0
2018-Jan-08 16:59N 34°15' W 119°16'0 0.0
2018-Jan-08 16:28N 34°15' W 119°16'0 0.0
2018-Jan-08 16:01N 34°15' W 119°16'0 0.0
2018-Jan-08 15:30N 34°15' W 119°16'0 0.0
2018-Jan-08 15:00N 34°15' W 119°16'0 0.0
2018-Jan-08 14:26N 34°15' W 119°16'0 0.0
2018-Jan-08 13:59N 34°15' W 119°16'  

Dump ship's entire track history